sensor_id;sensor_type;location;lat;lon;timestamp;pressure;altitude;pressure_sealevel;temperature;humidity
11648;BME280;5880;52.342;9.662;2024-02-21T00:00:47;101499.47;;;13.24;61.36
11648;BME280;5880;52.342;9.662;2024-02-21T00:03:12;101505.78;;;13.24;61.43
11648;BME280;5880;52.342;9.662;2024-02-21T00:05:38;101502.44;;;13.22;61.38
11648;BME280;5880;52.342;9.662;2024-02-21T00:08:04;101495.06;;;13.23;61.42
11648;BME280;5880;52.342;9.662;2024-02-21T00:10:30;101495.06;;;13.23;61.49
11648;BME280;5880;52.342;9.662;2024-02-21T00:12:58;101488.72;;;13.22;61.38
11648;BME280;5880;52.342;9.662;2024-02-21T00:15:25;101487.88;;;13.22;61.48
11648;BME280;5880;52.342;9.662;2024-02-21T00:17:51;101478.81;;;13.21;61.59
11648;BME280;5880;52.342;9.662;2024-02-21T00:20:17;101474.97;;;13.22;61.49
11648;BME280;5880;52.342;9.662;2024-02-21T00:22:43;101477.97;;;13.21;61.38
11648;BME280;5880;52.342;9.662;2024-02-21T00:25:09;101479.66;;;13.22;61.53
11648;BME280;5880;52.342;9.662;2024-02-21T00:27:35;101476.28;;;13.20;61.52
11648;BME280;5880;52.342;9.662;2024-02-21T00:30:01;101469.75;;;13.21;61.59
11648;BME280;5880;52.342;9.662;2024-02-21T00:32:27;101464.88;;;13.23;61.58
11648;BME280;5880;52.342;9.662;2024-02-21T00:34:53;101469.28;;;13.24;61.47
11648;BME280;5880;52.342;9.662;2024-02-21T00:37:18;101463.16;;;13.22;61.60
11648;BME280;5880;52.342;9.662;2024-02-21T00:39:44;101458.28;;;13.24;61.67
11648;BME280;5880;52.342;9.662;2024-02-21T00:42:09;101452.59;;;13.25;61.57
11648;BME280;5880;52.342;9.662;2024-02-21T00:44:35;101463.31;;;13.27;61.26
11648;BME280;5880;52.342;9.662;2024-02-21T00:47:01;101452.59;;;13.25;61.45
11648;BME280;5880;52.342;9.662;2024-02-21T00:49:26;101448.97;;;13.25;61.52
11648;BME280;5880;52.342;9.662;2024-02-21T00:51:52;101443.47;;;13.25;61.58
11648;BME280;5880;52.342;9.662;2024-02-21T00:54:18;101438.00;;;13.25;61.47
11648;BME280;5880;52.342;9.662;2024-02-21T00:56:43;101425.97;;;13.26;61.55
11648;BME280;5880;52.342;9.662;2024-02-21T00:59:09;101420.47;;;13.26;61.70
11648;BME280;5880;52.342;9.662;2024-02-21T01:01:35;101418.78;;;13.25;61.85
11648;BME280;5880;52.342;9.662;2024-02-21T01:04:00;101417.94;;;13.24;61.70
11648;BME280;5880;52.342;9.662;2024-02-21T01:06:26;101420.47;;;13.26;61.74
11648;BME280;5880;52.342;9.662;2024-02-21T01:08:52;101423.22;;;13.26;61.56
11648;BME280;5880;52.342;9.662;2024-02-21T01:11:18;101421.31;;;13.26;61.76
11648;BME280;5880;52.342;9.662;2024-02-21T01:13:44;101423.03;;;13.27;61.80
11648;BME280;5880;52.342;9.662;2024-02-21T01:16:09;101401.47;;;13.24;61.56
11648;BME280;5880;52.342;9.662;2024-02-21T01:18:37;101410.13;;;13.28;61.90
11648;BME280;5880;52.342;9.662;2024-02-21T01:21:05;101400.16;;;13.27;61.72
11648;BME280;5880;52.342;9.662;2024-02-21T01:23:36;101408.66;;;13.25;61.78
11648;BME280;5880;52.342;9.662;2024-02-21T01:26:03;101399.81;;;13.23;61.73
11648;BME280;5880;52.342;9.662;2024-02-21T01:28:30;101407.78;;;13.25;61.72
11648;BME280;5880;52.342;9.662;2024-02-21T01:30:56;101413.50;;;13.30;61.82
11648;BME280;5880;52.342;9.662;2024-02-21T01:33:22;101395.56;;;13.27;61.78
11648;BME280;5880;52.342;9.662;2024-02-21T01:35:48;101401.19;;;13.33;61.71
11648;BME280;5880;52.342;9.662;2024-02-21T01:38:14;101398.47;;;13.33;61.70
11648;BME280;5880;52.342;9.662;2024-02-21T01:40:40;101392.09;;;13.32;61.84
11648;BME280;5880;52.342;9.662;2024-02-21T01:43:19;101392.72;;;13.34;61.63
11648;BME280;5880;52.342;9.662;2024-02-21T01:45:52;101380.91;;;13.34;61.79
11648;BME280;5880;52.342;9.662;2024-02-21T01:48:19;101382.81;;;13.33;61.63
11648;BME280;5880;52.342;9.662;2024-02-21T01:50:46;101379.84;;;13.35;61.74
11648;BME280;5880;52.342;9.662;2024-02-21T01:53:25;101381.72;;;13.34;61.58
11648;BME280;5880;52.342;9.662;2024-02-21T01:55:53;101376.50;;;13.33;61.58
11648;BME280;5880;52.342;9.662;2024-02-21T01:58:19;101378.38;;;13.32;61.48
11648;BME280;5880;52.342;9.662;2024-02-21T02:00:47;101365.72;;;13.31;61.71
11648;BME280;5880;52.342;9.662;2024-02-21T02:03:14;101370.75;;;13.34;61.50
11648;BME280;5880;52.342;9.662;2024-02-21T02:05:47;101362.50;;;13.34;61.54
11648;BME280;5880;52.342;9.662;2024-02-21T02:08:18;101360.84;;;13.33;61.56
11648;BME280;5880;52.342;9.662;2024-02-21T02:10:45;101366.94;;;13.35;61.44
11648;BME280;5880;52.342;9.662;2024-02-21T02:13:14;101355.13;;;13.35;61.45
11648;BME280;5880;52.342;9.662;2024-02-21T02:15:45;101353.84;;;13.37;61.47
11648;BME280;5880;52.342;9.662;2024-02-21T02:18:12;101349.16;;;13.38;61.44
11648;BME280;5880;52.342;9.662;2024-02-21T02:20:38;101346.44;;;13.38;61.57
11648;BME280;5880;52.342;9.662;2024-02-21T02:23:10;101332.91;;;13.36;61.42
11648;BME280;5880;52.342;9.662;2024-02-21T02:25:36;101339.03;;;13.38;61.45
11648;BME280;5880;52.342;9.662;2024-02-21T02:28:09;101338.78;;;13.40;61.46
11648;BME280;5880;52.342;9.662;2024-02-21T02:30:37;101323.63;;;13.37;61.59
11648;BME280;5880;52.342;9.662;2024-02-21T02:33:06;101318.75;;;13.39;61.51
11648;BME280;5880;52.342;9.662;2024-02-21T02:35:32;101323.97;;;13.41;61.63
11648;BME280;5880;52.342;9.662;2024-02-21T02:37:58;101317.06;;;13.38;61.42
11648;BME280;5880;52.342;9.662;2024-02-21T02:40:24;101308.81;;;13.38;61.30
11648;BME280;5880;52.342;9.662;2024-02-21T02:42:50;101310.50;;;13.39;61.53
11648;BME280;5880;52.342;9.662;2024-02-21T02:45:17;101315.13;;;13.39;61.57
11648;BME280;5880;52.342;9.662;2024-02-21T02:47:45;101301.41;;;13.39;61.03
11648;BME280;5880;52.342;9.662;2024-02-21T02:50:11;101294.88;;;13.40;61.57
11648;BME280;5880;52.342;9.662;2024-02-21T02:52:37;101292.34;;;13.38;61.56
11648;BME280;5880;52.342;9.662;2024-02-21T02:55:04;101299.28;;;13.41;61.48
11648;BME280;5880;52.342;9.662;2024-02-21T02:57:30;101289.13;;;13.41;61.47
11648;BME280;5880;52.342;9.662;2024-02-21T02:59:56;101280.88;;;13.41;61.54
11648;BME280;5880;52.342;9.662;2024-02-21T03:02:22;101282.19;;;13.39;61.34
11648;BME280;5880;52.342;9.662;2024-02-21T03:04:48;101288.06;;;13.42;61.53
11648;BME280;5880;52.342;9.662;2024-02-21T03:07:15;101283.41;;;13.43;61.35
11648;BME280;5880;52.342;9.662;2024-02-21T03:09:41;101265.00;;;13.43;61.52
11648;BME280;5880;52.342;9.662;2024-02-21T03:12:10;101253.41;;;13.41;61.43
11648;BME280;5880;52.342;9.662;2024-02-21T03:14:36;101248.78;;;13.42;61.31
11648;BME280;5880;52.342;9.662;2024-02-21T03:17:02;101227.88;;;13.41;61.21
11648;BME280;5880;52.342;9.662;2024-02-21T03:19:29;101225.38;;;13.39;61.38
11648;BME280;5880;52.342;9.662;2024-02-21T03:21:55;101219.03;;;13.39;61.38
11648;BME280;5880;52.342;9.662;2024-02-21T03:24:21;101208.31;;;13.37;61.31
11648;BME280;5880;52.342;9.662;2024-02-21T03:26:47;101204.47;;;13.38;61.33
11648;BME280;5880;52.342;9.662;2024-02-21T03:29:15;101192.66;;;13.38;61.32
11648;BME280;5880;52.342;9.662;2024-02-21T03:31:42;101201.72;;;13.38;61.16
11648;BME280;5880;52.342;9.662;2024-02-21T03:34:08;101199.00;;;13.38;61.21
11648;BME280;5880;52.342;9.662;2024-02-21T03:36:33;101200.91;;;13.38;61.26
11648;BME280;5880;52.342;9.662;2024-02-21T03:38:59;101194.31;;;13.39;61.41
11648;BME280;5880;52.342;9.662;2024-02-21T03:41:25;101186.09;;;13.39;61.34
11648;BME280;5880;52.342;9.662;2024-02-21T03:43:50;101169.00;;;13.37;61.16
11648;BME280;5880;52.342;9.662;2024-02-21T03:46:16;101178.72;;;13.39;61.24
11648;BME280;5880;52.342;9.662;2024-02-21T03:48:42;101185.88;;;13.40;61.17
11648;BME280;5880;52.342;9.662;2024-02-21T03:51:08;101187.78;;;13.40;61.24
11648;BME280;5880;52.342;9.662;2024-02-21T03:53:33;101189.69;;;13.39;61.13
11648;BME280;5880;52.342;9.662;2024-02-21T03:56:03;101191.13;;;13.42;61.04
11648;BME280;5880;52.342;9.662;2024-02-21T03:58:30;101192.19;;;13.41;61.18
11648;BME280;5880;52.342;9.662;2024-02-21T04:00:56;101194.47;;;13.44;61.16
11648;BME280;5880;52.342;9.662;2024-02-21T04:03:21;101200.78;;;13.44;61.15
11648;BME280;5880;52.342;9.662;2024-02-21T04:05:47;101205.47;;;13.44;61.02
11648;BME280;5880;52.342;9.662;2024-02-21T04:08:14;101211.78;;;13.44;61.10
11648;BME280;5880;52.342;9.662;2024-02-21T04:10:39;101228.59;;;13.48;61.06
11648;BME280;5880;52.342;9.662;2024-02-21T04:13:06;101227.53;;;13.49;60.88
11648;BME280;5880;52.342;9.662;2024-02-21T04:15:36;101242.72;;;13.51;60.81
11648;BME280;5880;52.342;9.662;2024-02-21T04:18:02;101236.38;;;13.51;60.83
11648;BME280;5880;52.342;9.662;2024-02-21T04:20:29;101234.47;;;13.51;60.71
11648;BME280;5880;52.342;9.662;2024-02-21T04:22:55;101233.03;;;13.49;60.82
11648;BME280;5880;52.342;9.662;2024-02-21T04:25:21;101225.16;;;13.52;60.96
11648;BME280;5880;52.342;9.662;2024-02-21T04:27:46;101219.66;;;13.52;60.77
11648;BME280;5880;52.342;9.662;2024-02-21T04:30:12;101221.56;;;13.52;60.66
11648;BME280;5880;52.342;9.662;2024-02-21T04:32:38;101222.28;;;13.47;60.78
11648;BME280;5880;52.342;9.662;2024-02-21T04:35:04;101236.38;;;13.51;60.73
11648;BME280;5880;52.342;9.662;2024-02-21T04:37:30;101222.28;;;13.47;60.69
11648;BME280;5880;52.342;9.662;2024-02-21T04:39:56;101222.28;;;13.47;60.85
11648;BME280;5880;52.342;9.662;2024-02-21T04:42:22;101225.25;;;13.46;60.85
11648;BME280;5880;52.342;9.662;2024-02-21T04:44:47;101227.78;;;13.47;60.89
11648;BME280;5880;52.342;9.662;2024-02-21T04:47:13;101237.56;;;13.43;60.97
11648;BME280;5880;52.342;9.662;2024-02-21T04:49:39;101221.06;;;13.43;60.76
11648;BME280;5880;52.342;9.662;2024-02-21T04:52:05;101231.22;;;13.43;60.88
11648;BME280;5880;52.342;9.662;2024-02-21T04:54:31;101231.72;;;13.40;60.93
11648;BME280;5880;52.342;9.662;2024-02-21T04:56:57;101230.63;;;13.41;61.16
11648;BME280;5880;52.342;9.662;2024-02-21T04:59:22;101223.22;;;13.41;60.98
11648;BME280;5880;52.342;9.662;2024-02-21T05:01:48;101216.91;;;13.41;61.08
11648;BME280;5880;52.342;9.662;2024-02-21T05:04:14;101213.53;;;13.39;61.05
11648;BME280;5880;52.342;9.662;2024-02-21T05:06:41;101220.94;;;13.38;60.84
11648;BME280;5880;52.342;9.662;2024-02-21T05:09:08;101212.94;;;13.37;61.00
11648;BME280;5880;52.342;9.662;2024-02-21T05:11:37;101214.63;;;13.38;60.88
11648;BME280;5880;52.342;9.662;2024-02-21T05:14:04;101226.44;;;13.38;60.93
11648;BME280;5880;52.342;9.662;2024-02-21T05:16:31;101213.19;;;13.35;60.82
11648;BME280;5880;52.342;9.662;2024-02-21T05:18:56;101204.34;;;13.33;60.83
11648;BME280;5880;52.342;9.662;2024-02-21T05:21:26;101201.38;;;13.35;60.78
11648;BME280;5880;52.342;9.662;2024-02-21T05:23:53;101209.13;;;13.38;60.91
11648;BME280;5880;52.342;9.662;2024-02-21T05:26:27;101225.38;;;13.39;60.76
11648;BME280;5880;52.342;9.662;2024-02-21T05:28:53;101205.56;;;13.37;60.79
11648;BME280;5880;52.342;9.662;2024-02-21T05:31:19;101205.78;;;13.36;60.89
11648;BME280;5880;52.342;9.662;2024-02-21T05:33:45;101195.03;;;13.34;60.83
11648;BME280;5880;52.342;9.662;2024-02-21T05:36:12;101193.38;;;13.33;60.86
11648;BME280;5880;52.342;9.662;2024-02-21T05:38:38;101181.31;;;13.34;60.96
11648;BME280;5880;52.342;9.662;2024-02-21T05:41:04;101196.72;;;13.35;60.70
11648;BME280;5880;52.342;9.662;2024-02-21T05:43:30;101199.69;;;13.34;60.94
11648;BME280;5880;52.342;9.662;2024-02-21T05:45:56;101193.00;;;13.29;60.98
11648;BME280;5880;52.342;9.662;2024-02-21T05:48:22;101211.50;;;13.34;60.80
11648;BME280;5880;52.342;9.662;2024-02-21T05:50:49;101204.13;;;13.35;60.85
11648;BME280;5880;52.342;9.662;2024-02-21T05:53:15;101202.22;;;13.35;60.91
11648;BME280;5880;52.342;9.662;2024-02-21T05:55:41;101195.28;;;13.33;60.98
11648;BME280;5880;52.342;9.662;2024-02-21T05:58:07;101201.63;;;13.33;60.92
11648;BME280;5880;52.342;9.662;2024-02-21T06:00:35;101180.56;;;13.27;60.79
11648;BME280;5880;52.342;9.662;2024-02-21T06:03:02;101192.78;;;13.31;60.80
11648;BME280;5880;52.342;9.662;2024-02-21T06:05:27;101178.06;;;13.25;60.92
11648;BME280;5880;52.342;9.662;2024-02-21T06:07:53;101196.84;;;13.28;60.95
11648;BME280;5880;52.342;9.662;2024-02-21T06:10:19;101188.38;;;13.30;60.81
11648;BME280;5880;52.342;9.662;2024-02-21T06:12:44;101182.88;;;13.30;60.98
11648;BME280;5880;52.342;9.662;2024-02-21T06:15:10;101182.00;;;13.29;60.90
11648;BME280;5880;52.342;9.662;2024-02-21T06:17:36;101178.69;;;13.27;60.96
11648;BME280;5880;52.342;9.662;2024-02-21T06:20:01;101183.94;;;13.29;60.99
11648;BME280;5880;52.342;9.662;2024-02-21T06:22:27;101174.88;;;13.28;60.81
11648;BME280;5880;52.342;9.662;2024-02-21T06:24:53;101185.03;;;13.28;60.90
11648;BME280;5880;52.342;9.662;2024-02-21T06:27:19;101178.69;;;13.27;60.98
11648;BME280;5880;52.342;9.662;2024-02-21T06:29:45;101177.63;;;13.28;61.10
11648;BME280;5880;52.342;9.662;2024-02-21T06:32:11;101180.34;;;13.28;60.92
11648;BME280;5880;52.342;9.662;2024-02-21T06:34:37;101174.03;;;13.28;61.08
11648;BME280;5880;52.342;9.662;2024-02-21T06:37:02;101165.81;;;13.28;60.84
11648;BME280;5880;52.342;9.662;2024-02-21T06:39:29;101164.72;;;13.29;60.86
11648;BME280;5880;52.342;9.662;2024-02-21T06:41:55;101171.91;;;13.30;61.00
11648;BME280;5880;52.342;9.662;2024-02-21T06:44:21;101163.88;;;13.28;60.98
11648;BME280;5880;52.342;9.662;2024-02-21T06:46:47;101155.66;;;13.28;60.92
11648;BME280;5880;52.342;9.662;2024-02-21T06:49:13;101165.16;;;13.26;60.94
11648;BME280;5880;52.342;9.662;2024-02-21T06:51:42;101161.34;;;13.27;60.97
11648;BME280;5880;52.342;9.662;2024-02-21T06:54:08;101167.72;;;13.27;61.04
11648;BME280;5880;52.342;9.662;2024-02-21T06:56:36;101161.81;;;13.24;61.09
11648;BME280;5880;52.342;9.662;2024-02-21T06:59:02;101172.31;;;13.27;61.11
11648;BME280;5880;52.342;9.662;2024-02-21T07:01:29;101173.41;;;13.26;60.99
11648;BME280;5880;52.342;9.662;2024-02-21T07:03:55;101172.31;;;13.27;60.93
11648;BME280;5880;52.342;9.662;2024-02-21T07:06:21;101172.31;;;13.27;61.16
11648;BME280;5880;52.342;9.662;2024-02-21T07:08:47;101175.06;;;13.27;60.99
11648;BME280;5880;52.342;9.662;2024-02-21T07:11:13;101183.31;;;13.27;61.11
11648;BME280;5880;52.342;9.662;2024-02-21T07:13:39;101181.63;;;13.26;61.23
11648;BME280;5880;52.342;9.662;2024-02-21T07:16:06;101169.84;;;13.25;61.16
11648;BME280;5880;52.342;9.662;2024-02-21T07:18:31;101162.66;;;13.24;61.16
11648;BME280;5880;52.342;9.662;2024-02-21T07:20:57;101161.81;;;13.24;61.18
11648;BME280;5880;52.342;9.662;2024-02-21T07:23:24;101164.97;;;13.27;61.25
11648;BME280;5880;52.342;9.662;2024-02-21T07:25:49;101171.28;;;13.28;61.09
11648;BME280;5880;52.342;9.662;2024-02-21T07:28:15;101172.13;;;13.28;61.20
11648;BME280;5880;52.342;9.662;2024-02-21T07:30:42;101161.75;;;13.30;61.20
11648;BME280;5880;52.342;9.662;2024-02-21T07:33:07;101157.91;;;13.32;61.27
11648;BME280;5880;52.342;9.662;2024-02-21T07:35:33;101161.25;;;13.34;61.24
11648;BME280;5880;52.342;9.662;2024-02-21T07:37:59;101158.28;;;13.35;61.15
11648;BME280;5880;52.342;9.662;2024-02-21T07:40:27;101165.44;;;13.36;61.03
11648;BME280;5880;52.342;9.662;2024-02-21T07:42:53;101165.91;;;13.33;61.23
11648;BME280;5880;52.342;9.662;2024-02-21T07:45:18;101170.09;;;13.36;61.05
11648;BME280;5880;52.342;9.662;2024-02-21T07:47:47;101172.38;;;13.39;61.38
11648;BME280;5880;52.342;9.662;2024-02-21T07:50:12;101175.72;;;13.41;61.19
11648;BME280;5880;52.342;9.662;2024-02-21T07:52:38;101167.47;;;13.41;61.21
11648;BME280;5880;52.342;9.662;2024-02-21T07:55:04;101173.56;;;13.43;61.34
11648;BME280;5880;52.342;9.662;2024-02-21T07:57:30;101163.41;;;13.43;61.22
11648;BME280;5880;52.342;9.662;2024-02-21T07:59:56;101165.69;;;13.46;61.25
11648;BME280;5880;52.342;9.662;2024-02-21T08:02:21;101166.53;;;13.47;61.10
11648;BME280;5880;52.342;9.662;2024-02-21T08:04:47;101169.00;;;13.48;61.19
11648;BME280;5880;52.342;9.662;2024-02-21T08:07:12;101167.97;;;13.49;61.37
11648;BME280;5880;52.342;9.662;2024-02-21T08:09:40;101164.13;;;13.50;61.19
11648;BME280;5880;52.342;9.662;2024-02-21T08:12:06;101167.97;;;13.49;61.20
11648;BME280;5880;52.342;9.662;2024-02-21T08:14:31;101159.22;;;13.52;61.23
11648;BME280;5880;52.342;9.662;2024-02-21T08:16:57;101164.28;;;13.56;61.47
11648;BME280;5880;52.342;9.662;2024-02-21T08:19:24;101160.94;;;13.54;61.30
11648;BME280;5880;52.342;9.662;2024-02-21T08:21:50;101165.69;;;13.58;61.40
11648;BME280;5880;52.342;9.662;2024-02-21T08:24:16;101159.13;;;13.59;61.36
11648;BME280;5880;52.342;9.662;2024-02-21T08:26:43;101167.47;;;13.64;61.31
11648;BME280;5880;52.342;9.662;2024-02-21T08:29:11;101163.66;;;13.65;61.41
11648;BME280;5880;52.342;9.662;2024-02-21T08:31:37;101152.06;;;13.63;61.04
11648;BME280;5880;52.342;9.662;2024-02-21T08:34:03;101153.84;;;13.69;61.25
11648;BME280;5880;52.342;9.662;2024-02-21T08:36:34;101143.22;;;13.73;61.19
11648;BME280;5880;52.342;9.662;2024-02-21T08:39:02;101140.25;;;13.75;61.37
11648;BME280;5880;52.342;9.662;2024-02-21T08:41:31;101150.16;;;13.76;61.50
11648;BME280;5880;52.342;9.662;2024-02-21T08:43:57;101145.25;;;13.78;61.40
11648;BME280;5880;52.342;9.662;2024-02-21T08:46:23;101132.13;;;13.80;61.40
11648;BME280;5880;52.342;9.662;2024-02-21T08:48:53;101116.47;;;13.80;61.64
11648;BME280;5880;52.342;9.662;2024-02-21T08:51:20;101128.38;;;13.86;61.53
11648;BME280;5880;52.342;9.662;2024-02-21T08:53:46;101121.59;;;13.88;61.49
11648;BME280;5880;52.342;9.662;2024-02-21T08:56:12;101127.41;;;13.92;61.59
11648;BME280;5880;52.342;9.662;2024-02-21T08:58:39;101120.38;;;13.96;61.54
11648;BME280;5880;52.342;9.662;2024-02-21T09:01:06;101111.41;;;14.01;61.39
11648;BME280;5880;52.342;9.662;2024-02-21T09:03:36;101112.00;;;14.03;61.42
11648;BME280;5880;52.342;9.662;2024-02-21T09:06:04;101109.84;;;14.05;61.35
11648;BME280;5880;52.342;9.662;2024-02-21T09:08:30;101098.59;;;14.06;61.34
11648;BME280;5880;52.342;9.662;2024-02-21T09:10:55;101105.28;;;14.10;61.20
11648;BME280;5880;52.342;9.662;2024-02-21T09:13:21;101104.78;;;14.13;61.35
11648;BME280;5880;52.342;9.662;2024-02-21T09:15:50;101100.69;;;14.16;61.13
11648;BME280;5880;52.342;9.662;2024-02-21T09:18:16;101099.38;;;14.19;61.27
11648;BME280;5880;52.342;9.662;2024-02-21T09:20:42;101090.16;;;14.25;61.26
11648;BME280;5880;52.342;9.662;2024-02-21T09:23:09;101091.34;;;14.29;60.66
11648;BME280;5880;52.342;9.662;2024-02-21T09:25:34;101093.59;;;14.32;61.06
11648;BME280;5880;52.342;9.662;2024-02-21T09:28:02;101089.50;;;14.34;61.14
11648;BME280;5880;52.342;9.662;2024-02-21T09:30:28;101083.03;;;14.41;60.93
11648;BME280;5880;52.342;9.662;2024-02-21T09:32:54;101094.13;;;14.46;60.79
11648;BME280;5880;52.342;9.662;2024-02-21T09:35:20;101084.53;;;14.48;60.80
11648;BME280;5880;52.342;9.662;2024-02-21T09:37:48;101085.53;;;14.54;60.73
11648;BME280;5880;52.342;9.662;2024-02-21T09:40:15;101084.44;;;14.55;60.56
11648;BME280;5880;52.342;9.662;2024-02-21T09:42:47;101086.19;;;14.61;60.49
11648;BME280;5880;52.342;9.662;2024-02-21T09:45:24;101084.59;;;14.65;60.33
11648;BME280;5880;52.342;9.662;2024-02-21T09:48:24;101086.28;;;14.66;60.45
11648;BME280;5880;52.342;9.662;2024-02-21T09:50:53;101084.94;;;14.69;60.43
11648;BME280;5880;52.342;9.662;2024-02-21T09:53:21;101081.69;;;14.72;60.48
11648;BME280;5880;52.342;9.662;2024-02-21T09:55:50;101082.63;;;14.77;60.20
11648;BME280;5880;52.342;9.662;2024-02-21T09:58:16;101081.03;;;14.82;60.07
11648;BME280;5880;52.342;9.662;2024-02-21T10:00:42;101084.38;;;14.84;60.01
11648;BME280;5880;52.342;9.662;2024-02-21T10:03:08;101086.88;;;14.85;60.02
11648;BME280;5880;52.342;9.662;2024-02-21T10:05:38;101080.03;;;14.88;59.81
11648;BME280;5880;52.342;9.662;2024-02-21T10:08:04;101087.19;;;14.89;59.84
11648;BME280;5880;52.342;9.662;2024-02-21T10:10:45;101083.97;;;14.92;59.62
11648;BME280;5880;52.342;9.662;2024-02-21T10:13:27;101074.63;;;14.93;59.87
11648;BME280;5880;52.342;9.662;2024-02-21T10:16:07;101060.53;;;14.89;59.68
11648;BME280;5880;52.342;9.662;2024-02-21T10:18:34;101064.44;;;14.93;59.79
11648;BME280;5880;52.342;9.662;2024-02-21T10:21:05;101062.25;;;14.95;59.66
11648;BME280;5880;52.342;9.662;2024-02-21T10:23:46;101064.53;;;14.98;59.72
11648;BME280;5880;52.342;9.662;2024-02-21T10:26:12;101049.31;;;14.96;59.60
11648;BME280;5880;52.342;9.662;2024-02-21T10:28:39;101053.84;;;15.02;59.64
11648;BME280;5880;52.342;9.662;2024-02-21T10:31:09;101051.44;;;15.06;59.42
11648;BME280;5880;52.342;9.662;2024-02-21T10:33:35;101045.16;;;15.10;59.69
11648;BME280;5880;52.342;9.662;2024-02-21T10:36:11;101035.06;;;15.16;59.34
11648;BME280;5880;52.342;9.662;2024-02-21T10:38:40;101031.78;;;15.19;59.35
11648;BME280;5880;52.342;9.662;2024-02-21T10:41:06;101028.78;;;15.20;59.17
11648;BME280;5880;52.342;9.662;2024-02-21T10:43:40;101021.41;;;15.26;59.08
11648;BME280;5880;52.342;9.662;2024-02-21T10:46:09;101012.34;;;15.26;58.97
11648;BME280;5880;52.342;9.662;2024-02-21T10:48:47;101017.66;;;15.32;58.66
11648;BME280;5880;52.342;9.662;2024-02-21T10:51:18;101012.16;;;15.32;59.00
11648;BME280;5880;52.342;9.662;2024-02-21T10:54:09;101007.00;;;15.36;58.99
11648;BME280;5880;52.342;9.662;2024-02-21T10:56:39;101006.72;;;15.37;58.95
11648;BME280;5880;52.342;9.662;2024-02-21T10:59:07;101010.88;;;15.40;58.64
11648;BME280;5880;52.342;9.662;2024-02-21T11:01:34;101008.13;;;15.40;58.52
11648;BME280;5880;52.342;9.662;2024-02-21T11:04:10;101002.66;;;15.45;58.59
11648;BME280;5880;52.342;9.662;2024-02-21T11:06:39;101000.50;;;15.47;58.61
11648;BME280;5880;52.342;9.662;2024-02-21T11:09:10;100989.56;;;15.52;58.87
11648;BME280;5880;52.342;9.662;2024-02-21T11:11:39;100983.28;;;15.57;58.74
11648;BME280;5880;52.342;9.662;2024-02-21T11:14:10;100976.97;;;15.61;58.68
11648;BME280;5880;52.342;9.662;2024-02-21T11:16:41;100973.44;;;15.66;58.84
11648;BME280;5880;52.342;9.662;2024-02-21T11:21:46;100959.50;;;15.73;58.56
11648;BME280;5880;52.342;9.662;2024-02-21T11:24:13;100957.63;;;15.73;58.47
11648;BME280;5880;52.342;9.662;2024-02-21T11:26:40;100955.41;;;15.75;58.41
11648;BME280;5880;52.342;9.662;2024-02-21T11:29:08;100950.47;;;15.77;58.43
11648;BME280;5880;52.342;9.662;2024-02-21T11:31:45;100950.53;;;15.82;58.26
11648;BME280;5880;52.342;9.662;2024-02-21T11:34:17;100945.00;;;15.82;57.82
11648;BME280;5880;52.342;9.662;2024-02-21T11:36:50;100945.88;;;15.83;57.88
11648;BME280;5880;52.342;9.662;2024-02-21T11:39:26;100944.75;;;15.84;57.76
11648;BME280;5880;52.342;9.662;2024-02-21T11:42:05;100942.00;;;15.84;57.50
11648;BME280;5880;52.342;9.662;2024-02-21T11:44:34;100934.50;;;15.79;57.47
11648;BME280;5880;52.342;9.662;2024-02-21T11:47:00;100924.03;;;15.76;57.40
11648;BME280;5880;52.342;9.662;2024-02-21T11:49:28;100917.41;;;15.77;57.54
11648;BME280;5880;52.342;9.662;2024-02-21T11:52:01;100919.38;;;15.82;57.45
11648;BME280;5880;52.342;9.662;2024-02-21T11:54:30;100906.41;;;15.82;57.55
11648;BME280;5880;52.342;9.662;2024-02-21T11:56:56;100904.25;;;15.85;57.49
11648;BME280;5880;52.342;9.662;2024-02-21T11:59:22;100894.91;;;15.86;57.37
11648;BME280;5880;52.342;9.662;2024-02-21T12:01:52;100884.44;;;15.88;57.60
11648;BME280;5880;52.342;9.662;2024-02-21T12:04:19;100895.75;;;15.91;57.73
11648;BME280;5880;52.342;9.662;2024-02-21T12:06:46;100885.06;;;15.95;57.68
11648;BME280;5880;52.342;9.662;2024-02-21T12:09:18;100873.25;;;15.99;57.14
11648;BME280;5880;52.342;9.662;2024-02-21T12:11:45;100859.72;;;15.98;57.14
11648;BME280;5880;52.342;9.662;2024-02-21T12:14:16;100866.63;;;16.00;56.72
11648;BME280;5880;52.342;9.662;2024-02-21T12:16:42;100862.47;;;15.98;56.41
11648;BME280;5880;52.342;9.662;2024-02-21T12:19:13;100858.56;;;15.94;56.37
11648;BME280;5880;52.342;9.662;2024-02-21T12:21:39;100854.75;;;15.95;56.20
11648;BME280;5880;52.342;9.662;2024-02-21T12:24:20;100855.31;;;15.97;56.12
11648;BME280;5880;52.342;9.662;2024-02-21T12:26:46;100852.25;;;15.93;56.45
11648;BME280;5880;52.342;9.662;2024-02-21T12:29:12;100847.56;;;15.94;56.27
11648;BME280;5880;52.342;9.662;2024-02-21T12:31:38;100850.31;;;15.94;55.74
11648;BME280;5880;52.342;9.662;2024-02-21T12:34:04;100836.22;;;15.90;56.19
11648;BME280;5880;52.342;9.662;2024-02-21T12:36:32;100845.06;;;15.92;56.22
11648;BME280;5880;52.342;9.662;2024-02-21T12:38:58;100832.94;;;15.93;56.03
11648;BME280;5880;52.342;9.662;2024-02-21T12:41:23;100840.97;;;15.95;56.12
11648;BME280;5880;52.342;9.662;2024-02-21T12:43:51;100826.59;;;15.93;56.01
11648;BME280;5880;52.342;9.662;2024-02-21T12:46:16;100832.97;;;15.98;56.20
11648;BME280;5880;52.342;9.662;2024-02-21T12:48:42;100833.31;;;16.02;56.02
11648;BME280;5880;52.342;9.662;2024-02-21T12:51:08;100830.25;;;16.03;56.00
11648;BME280;5880;52.342;9.662;2024-02-21T12:53:33;100831.13;;;16.04;56.16
11648;BME280;5880;52.342;9.662;2024-02-21T12:56:00;100827.25;;;16.05;55.98
11648;BME280;5880;52.342;9.662;2024-02-21T12:58:25;100820.66;;;16.06;55.99
11648;BME280;5880;52.342;9.662;2024-02-21T13:00:51;100815.69;;;16.08;55.86
11648;BME280;5880;52.342;9.662;2024-02-21T13:03:17;100799.41;;;16.07;55.72